createdAt,value
2023-03-06T00:02:24.285Z,89.03
2023-03-06T00:04:50.801Z,89.16
2023-03-06T00:07:17.276Z,89.61
2023-03-06T00:09:43.767Z,89.34
2023-03-06T00:12:10.440Z,89.47
2023-03-06T00:14:36.935Z,89.33
2023-03-06T00:17:03.993Z,89.50
2023-03-06T00:19:30.465Z,89.46
2023-03-06T00:21:57.113Z,89.70
2023-03-06T00:24:23.662Z,89.96
2023-03-06T00:26:50.798Z,90.16
2023-03-06T00:29:17.311Z,90.29
2023-03-06T00:31:47.762Z,90.42
2023-03-06T00:34:15.030Z,90.63
2023-03-06T00:36:41.913Z,90.79
2023-03-06T00:39:09.534Z,90.94
2023-03-06T00:41:36.126Z,91.38
2023-03-06T00:44:02.554Z,91.30
2023-03-06T00:46:29.042Z,91.47
2023-03-06T00:48:55.728Z,91.75
2023-03-06T00:51:22.232Z,91.90
2023-03-06T00:53:48.850Z,91.91
2023-03-06T00:56:19.891Z,92.18
2023-03-06T00:58:47.545Z,92.49
2023-03-06T01:01:14.086Z,92.90
2023-03-06T01:03:40.695Z,93.06
2023-03-06T01:06:07.405Z,93.28
2023-03-06T01:08:35.248Z,93.63
2023-03-06T01:11:01.778Z,93.64
2023-03-06T01:13:28.296Z,93.66
2023-03-06T01:15:54.811Z,94.05
2023-03-06T01:18:21.397Z,94.50
2023-03-06T01:20:48.650Z,94.15
2023-03-06T01:23:17.973Z,94.21
2023-03-06T01:25:44.441Z,94.42
2023-03-06T01:28:10.965Z,94.41
2023-03-06T01:30:37.563Z,94.68
2023-03-06T01:33:04.062Z,94.77
2023-03-06T01:35:30.538Z,94.95
2023-03-06T01:37:57.012Z,95.25
2023-03-06T01:40:23.537Z,95.42
2023-03-06T01:42:50.606Z,95.78
2023-03-06T01:45:16.995Z,96.14
2023-03-06T01:47:44.776Z,96.18
2023-03-06T01:50:12.580Z,96.46
2023-03-06T01:53:00.424Z,96.47
2023-03-06T01:55:32.849Z,96.85
2023-03-06T01:58:03.430Z,97.05
2023-03-06T02:00:30.410Z,96.99
2023-03-06T02:03:04.632Z,97.28
2023-03-06T02:05:31.179Z,97.44
2023-03-06T02:07:58.197Z,97.53
2023-03-06T02:10:25.051Z,97.57
2023-03-06T02:12:52.291Z,97.68
2023-03-06T02:15:22.880Z,97.71
2023-03-06T02:17:51.225Z,98.00
2023-03-06T02:20:28.850Z,97.66
2023-03-06T02:23:10.293Z,97.94
2023-03-06T02:25:45.947Z,97.86
2023-03-06T02:28:15.391Z,97.99
2023-03-06T02:30:43.642Z,98.27
2023-03-06T02:33:17.354Z,98.67
2023-03-06T02:35:49.634Z,98.45
2023-03-06T02:38:19.961Z,98.71
2023-03-06T02:40:49.709Z,98.92
2023-03-06T02:43:22.849Z,98.84
2023-03-06T02:45:51.211Z,99.07
2023-03-06T02:48:19.122Z,99.17
2023-03-06T02:50:46.336Z,99.35
2023-03-06T02:53:14.845Z,99.84
2023-03-06T02:55:41.347Z,99.92
2023-03-06T02:58:08.379Z,100.00
2023-03-06T03:00:35.296Z,100.00
2023-03-06T03:03:05.855Z,100.00
2023-03-06T03:05:32.880Z,100.00
2023-03-06T03:08:07.102Z,100.00
2023-03-06T03:10:34.161Z,100.00
2023-03-06T03:13:00.638Z,100.00
2023-03-06T03:15:27.357Z,100.00
2023-03-06T03:17:54.191Z,100.00
2023-03-06T03:20:22.524Z,100.00
2023-03-06T03:22:54.927Z,100.00
2023-03-06T03:25:23.643Z,100.00
2023-03-06T03:27:51.411Z,100.00
2023-03-06T03:30:18.347Z,100.00
2023-03-06T03:32:45.213Z,100.00
2023-03-06T03:35:12.354Z,100.00
2023-03-06T03:37:39.916Z,100.00
2023-03-06T03:40:07.802Z,100.00
2023-03-06T03:42:34.563Z,100.00
2023-03-06T03:45:01.323Z,100.00
2023-03-06T03:47:28.429Z,100.00
2023-03-06T03:49:54.916Z,100.00
2023-03-06T03:52:21.612Z,100.00
2023-03-06T03:54:48.168Z,100.00
2023-03-06T03:57:14.625Z,100.00
2023-03-06T03:59:46.322Z,100.00
2023-03-06T04:02:23.804Z,100.00
2023-03-06T04:04:59.641Z,100.00
2023-03-06T04:07:26.623Z,100.00
2023-03-06T04:09:53.906Z,100.00
2023-03-06T04:12:20.509Z,100.00
2023-03-06T04:14:47.475Z,100.00
2023-03-06T04:17:14.074Z,100.00
2023-03-06T04:19:40.637Z,100.00
2023-03-06T04:22:07.094Z,100.00
2023-03-06T04:24:36.505Z,100.00
2023-03-06T04:27:03.155Z,100.00
2023-03-06T04:29:30.698Z,100.00
2023-03-06T04:31:57.248Z,100.00
2023-03-06T04:34:24.445Z,100.00
2023-03-06T04:36:50.989Z,100.00
2023-03-06T04:39:18.097Z,100.00
2023-03-06T04:41:44.629Z,100.00
2023-03-06T04:44:11.439Z,100.00
2023-03-06T04:46:39.010Z,100.00
2023-03-06T04:49:05.697Z,100.00
2023-03-06T04:51:32.197Z,100.00
2023-03-06T04:53:58.736Z,100.00
2023-03-06T04:56:25.152Z,100.00
2023-03-06T04:58:51.733Z,100.00
2023-03-06T05:01:18.539Z,100.00
2023-03-06T05:03:45.132Z,100.00
2023-03-06T05:06:11.648Z,100.00
2023-03-06T05:08:38.171Z,100.00
2023-03-06T05:11:04.850Z,100.00
2023-03-06T05:13:31.347Z,100.00
2023-03-06T05:16:05.475Z,100.00
2023-03-06T05:18:33.635Z,100.00
2023-03-06T05:21:00.917Z,100.00
2023-03-06T05:23:31.527Z,100.00
2023-03-06T05:25:58.089Z,100.00
2023-03-06T05:28:25.910Z,100.00
2023-03-06T05:30:52.418Z,100.00
2023-03-06T05:33:18.870Z,100.00
2023-03-06T05:35:47.234Z,100.00
2023-03-06T05:38:15.579Z,100.00
2023-03-06T05:40:43.980Z,100.00
2023-03-06T05:43:11.916Z,100.00
2023-03-06T05:45:39.103Z,100.00
2023-03-06T05:48:06.087Z,100.00
2023-03-06T05:50:33.092Z,100.00
2023-03-06T05:52:59.701Z,100.00
2023-03-06T05:55:26.139Z,100.00
2023-03-06T05:57:53.337Z,100.00
2023-03-06T06:00:20.488Z,100.00
2023-03-06T06:02:47.392Z,100.00
2023-03-06T06:05:14.565Z,100.00
2023-03-06T06:07:41.662Z,100.00
2023-03-06T06:10:09.499Z,100.00
2023-03-06T06:12:36.011Z,100.00
2023-03-06T06:15:02.565Z,100.00
2023-03-06T06:17:29.088Z,100.00
2023-03-06T06:19:55.562Z,100.00
2023-03-06T06:22:21.990Z,100.00
2023-03-06T06:24:48.481Z,100.00
2023-03-06T06:27:15.072Z,100.00
2023-03-06T06:29:41.630Z,100.00
2023-03-06T06:32:08.136Z,100.00
2023-03-06T06:34:34.790Z,100.00
2023-03-06T06:37:01.209Z,100.00
2023-03-06T06:39:28.723Z,100.00
2023-03-06T06:42:09.983Z,100.00
2023-03-06T06:44:42.138Z,100.00
2023-03-06T06:47:22.310Z,100.00
2023-03-06T06:49:52.643Z,100.00
2023-03-06T06:52:19.536Z,100.00
2023-03-06T06:54:46.184Z,100.00
2023-03-06T06:57:12.715Z,100.00
2023-03-06T06:59:39.319Z,100.00
2023-03-06T07:02:05.956Z,100.00
2023-03-06T07:04:32.621Z,100.00
2023-03-06T07:06:59.769Z,100.00
2023-03-06T07:09:26.425Z,100.00
2023-03-06T07:11:52.935Z,100.00
2023-03-06T07:14:19.460Z,100.00
2023-03-06T07:16:45.987Z,100.00
2023-03-06T07:19:12.585Z,100.00
2023-03-06T07:21:39.092Z,100.00
2023-03-06T07:24:05.830Z,100.00
2023-03-06T07:26:34.608Z,100.00
2023-03-06T07:29:02.173Z,100.00
2023-03-06T07:31:29.047Z,100.00
2023-03-06T07:33:55.824Z,100.00
2023-03-06T07:36:23.786Z,100.00
2023-03-06T07:38:50.479Z,99.76
2023-03-06T07:41:19.801Z,99.42
2023-03-06T07:43:48.463Z,98.76
2023-03-06T07:46:15.020Z,98.08
2023-03-06T07:48:42.076Z,97.61
2023-03-06T07:51:14.212Z,96.94
2023-03-06T07:53:41.260Z,96.17
2023-03-06T07:56:09.088Z,95.61
2023-03-06T07:58:37.989Z,94.43
2023-03-06T08:01:05.587Z,93.82
2023-03-06T08:03:32.443Z,93.43
2023-03-06T08:06:12.735Z,93.39
2023-03-06T08:08:40.701Z,91.91
2023-03-06T08:11:08.815Z,90.99
2023-03-06T08:13:35.810Z,90.84
2023-03-06T08:16:02.909Z,89.40
2023-03-06T08:18:29.486Z,87.52
2023-03-06T08:21:16.877Z,88.12
2023-03-06T08:23:44.510Z,87.08
2023-03-06T08:26:13.250Z,86.92
2023-03-06T08:28:39.974Z,86.49
2023-03-06T08:31:30.671Z,85.37
2023-03-06T08:33:59.562Z,84.35
2023-03-06T08:36:26.259Z,84.67
2023-03-06T08:38:53.085Z,83.86
2023-03-06T08:41:20.451Z,83.85
2023-03-06T08:43:47.781Z,82.83
2023-03-06T08:46:14.481Z,82.10
2023-03-06T08:48:41.453Z,81.78
2023-03-06T08:51:11.135Z,81.64
2023-03-06T08:53:43.604Z,80.67
2023-03-06T08:56:17.254Z,78.46
2023-03-06T08:58:44.135Z,78.33
2023-03-06T09:01:19.114Z,77.95
2023-03-06T09:03:45.739Z,77.38
2023-03-06T09:06:13.455Z,77.64
2023-03-06T09:08:43.177Z,76.21
2023-03-06T09:11:11.413Z,76.35
2023-03-06T09:13:37.938Z,75.34
2023-03-06T09:16:04.730Z,75.05
2023-03-06T09:18:31.257Z,74.00
2023-03-06T09:20:57.757Z,73.07
2023-03-06T09:23:24.225Z,72.77
2023-03-06T09:25:55.788Z,71.29
2023-03-06T09:28:22.723Z,70.69
2023-03-06T09:30:49.306Z,71.21
2023-03-06T09:33:16.443Z,70.46
2023-03-06T09:35:54.363Z,71.12
2023-03-06T09:38:24.096Z,70.03
2023-03-06T09:41:02.510Z,68.34
2023-03-06T09:43:35.998Z,68.83
2023-03-06T09:46:36.514Z,68.73
2023-03-06T09:49:15.104Z,67.47
2023-03-06T09:52:06.733Z,67.26
2023-03-06T09:54:44.807Z,66.51
2023-03-06T09:57:25.910Z,66.73
2023-03-06T09:59:55.530Z,66.66
2023-03-06T10:02:25.106Z,66.42
2023-03-06T10:05:01.107Z,65.82
2023-03-06T10:07:41.053Z,64.69
2023-03-06T10:10:24.046Z,64.95
2023-03-06T10:13:03.583Z,64.98
2023-03-06T10:15:34.618Z,64.65
2023-03-06T10:18:02.116Z,61.89
2023-03-06T10:20:36.437Z,60.92
2023-03-06T10:23:14.434Z,60.46
2023-03-06T10:25:50.245Z,60.16
2023-03-06T10:28:20.928Z,59.49
2023-03-06T10:31:01.370Z,60.17
2023-03-06T10:33:49.646Z,59.38
2023-03-06T10:36:18.990Z,58.73
2023-03-06T10:38:48.498Z,57.92
2023-03-06T10:41:35.577Z,58.73
2023-03-06T10:44:04.755Z,58.28
2023-03-06T10:46:37.573Z,58.27
2023-03-06T10:49:09.402Z,58.25
2023-03-06T10:51:35.937Z,59.85
2023-03-06T10:54:14.390Z,58.00
2023-03-06T10:56:46.344Z,57.69
2023-03-06T10:59:18.581Z,57.05
2023-03-06T11:01:46.910Z,56.97
2023-03-06T11:04:30.212Z,57.72
2023-03-06T11:07:16.373Z,56.77
2023-03-06T11:09:47.681Z,56.41
2023-03-06T11:12:32.338Z,56.84
2023-03-06T11:15:17.652Z,57.02
2023-03-06T11:17:53.005Z,55.89
2023-03-06T11:20:21.133Z,54.39
2023-03-06T11:22:59.616Z,54.80
2023-03-06T11:25:42.612Z,55.14
2023-03-06T11:28:29.580Z,55.46
2023-03-06T11:31:08.523Z,55.04
2023-03-06T11:33:46.753Z,54.58
2023-03-06T11:36:44.486Z,55.89
2023-03-06T11:39:38.770Z,56.58
2023-03-06T11:42:21.633Z,56.08
2023-03-06T11:45:02.517Z,56.11
2023-03-06T11:47:36.371Z,56.28
2023-03-06T11:50:25.458Z,56.86
2023-03-06T11:53:01.567Z,56.49
2023-03-06T11:55:45.286Z,56.56
2023-03-06T11:58:49.059Z,56.99
2023-03-06T12:01:52.897Z,57.52
2023-03-06T12:04:41.245Z,57.00
2023-03-06T12:07:27.583Z,57.98
2023-03-06T12:10:02.633Z,57.84
2023-03-06T12:12:44.417Z,58.41
2023-03-06T12:15:35.187Z,58.94
2023-03-06T12:18:19.437Z,59.13
2023-03-06T12:20:48.644Z,58.79
2023-03-06T12:23:30.335Z,59.61
2023-03-06T12:26:30.852Z,60.55
2023-03-06T12:29:23.086Z,60.73
2023-03-06T12:32:08.391Z,60.91
2023-03-06T12:35:06.677Z,61.18
2023-03-06T12:37:39.524Z,60.59
2023-03-06T12:40:12.196Z,60.43
2023-03-06T12:43:05.001Z,60.69
2023-03-06T12:45:37.049Z,60.76
2023-03-06T12:48:11.024Z,60.23
2023-03-06T12:50:38.857Z,60.80
2023-03-06T12:53:15.224Z,61.70
2023-03-06T12:55:50.540Z,62.04
2023-03-06T12:58:31.838Z,62.10
2023-03-06T13:01:14.547Z,62.54
2023-03-06T13:04:02.461Z,62.46
2023-03-06T13:06:59.438Z,62.51
2023-03-06T13:09:25.850Z,62.49
2023-03-06T13:12:27.038Z,62.75
2023-03-06T13:14:54.920Z,62.75
2023-03-06T13:17:24.445Z,61.50
2023-03-06T13:20:15.477Z,61.78
2023-03-06T13:22:46.922Z,61.15
2023-03-06T13:25:19.617Z,61.81
2023-03-06T13:27:52.730Z,61.89
2023-03-06T13:30:28.362Z,61.72
2023-03-06T13:32:56.253Z,61.62
2023-03-06T13:35:35.765Z,61.48
2023-03-06T13:38:02.393Z,61.38
2023-03-06T13:40:34.458Z,62.15
2023-03-06T13:43:06.974Z,62.47
2023-03-06T13:45:38.458Z,62.67
2023-03-06T13:48:30.197Z,62.78
2023-03-06T13:50:55.435Z,62.70
2023-03-06T13:53:52.604Z,63.06
2023-03-06T13:56:54.485Z,63.55
2023-03-06T14:00:08.980Z,63.00
2023-03-06T14:03:06.182Z,63.60
2023-03-06T14:05:50.586Z,63.86
2023-03-06T14:08:21.706Z,63.88
2023-03-06T14:10:59.182Z,63.98
2023-03-06T14:13:35.211Z,62.77
2023-03-06T14:16:21.572Z,63.11
2023-03-06T14:18:50.534Z,62.66
2023-03-06T14:21:30.691Z,62.68
2023-03-06T14:24:02.873Z,62.70
2023-03-06T14:26:34.153Z,62.63
2023-03-06T14:29:03.016Z,62.35
2023-03-06T14:31:43.158Z,63.27
2023-03-06T14:34:40.132Z,64.45
2023-03-06T14:37:19.926Z,65.43
2023-03-06T14:39:46.870Z,66.08
2023-03-06T14:42:25.197Z,66.49
2023-03-06T14:45:02.641Z,66.94
2023-03-06T14:47:35.505Z,65.52
2023-03-06T14:50:21.720Z,63.88
2023-03-06T14:52:50.609Z,63.92
2023-03-06T14:55:19.695Z,65.32
2023-03-06T14:57:51.088Z,65.48
2023-03-06T15:00:23.336Z,66.15
2023-03-06T15:02:53.057Z,66.63
2023-03-06T15:05:25.561Z,66.64
2023-03-06T15:07:54.378Z,66.86
2023-03-06T15:10:26.966Z,66.60
2023-03-06T15:12:54.082Z,65.70
2023-03-06T15:15:30.182Z,66.22
2023-03-06T15:17:56.701Z,64.91
2023-03-06T15:20:43.583Z,64.11
2023-03-06T15:23:19.492Z,64.36
2023-03-06T15:25:55.231Z,64.41
2023-03-06T15:28:33.084Z,64.75
2023-03-06T15:31:25.681Z,65.36
2023-03-06T15:34:07.489Z,64.47
2023-03-06T15:36:35.077Z,64.89
2023-03-06T15:39:01.748Z,65.04
2023-03-06T15:41:38.996Z,64.54
2023-03-06T15:44:12.420Z,64.02
2023-03-06T15:46:39.079Z,63.25
2023-03-06T15:49:14.329Z,62.99
2023-03-06T15:51:40.941Z,63.13
2023-03-06T15:54:12.299Z,63.41
2023-03-06T15:56:42.667Z,63.89
2023-03-06T15:59:19.965Z,64.40
2023-03-06T16:01:46.508Z,64.72
2023-03-06T16:04:13.708Z,65.63
2023-03-06T16:06:40.671Z,65.54
2023-03-06T16:09:07.093Z,66.52
2023-03-06T16:11:43.321Z,67.96
2023-03-06T16:14:23.405Z,69.66
2023-03-06T16:16:51.710Z,70.98
2023-03-06T16:19:26.259Z,72.56
2023-03-06T16:21:54.897Z,73.89
2023-03-06T16:24:21.869Z,76.36
2023-03-06T16:26:53.331Z,76.37
2023-03-06T16:29:24.831Z,77.33
2023-03-06T16:31:51.768Z,78.21
2023-03-06T16:34:19.792Z,79.92
2023-03-06T16:36:48.312Z,79.62
2023-03-06T16:39:19.160Z,81.02
2023-03-06T16:41:49.378Z,81.70
2023-03-06T16:44:16.279Z,82.46
2023-03-06T16:46:45.830Z,82.77
2023-03-06T16:49:18.708Z,83.94
2023-03-06T16:51:45.533Z,84.29
2023-03-06T16:54:12.806Z,84.79
2023-03-06T16:56:39.302Z,84.81
2023-03-06T16:59:05.716Z,85.59
2023-03-06T17:01:32.468Z,85.53
2023-03-06T17:03:59.375Z,85.73
2023-03-06T17:06:25.989Z,86.13
2023-03-06T17:08:52.402Z,86.51
2023-03-06T17:11:20.376Z,86.73
2023-03-06T17:13:47.625Z,86.40
2023-03-06T17:16:18.514Z,87.01
2023-03-06T17:18:46.268Z,87.10
2023-03-06T17:21:15.680Z,87.65
2023-03-06T17:23:42.720Z,87.45
2023-03-06T17:26:18.716Z,87.80
2023-03-06T17:28:46.132Z,88.03
2023-03-06T17:31:21.481Z,87.97
2023-03-06T17:33:48.796Z,88.16
2023-03-06T17:36:16.699Z,88.40
2023-03-06T17:38:43.309Z,88.08
2023-03-06T17:41:11.386Z,88.18
2023-03-06T17:43:38.188Z,88.02
2023-03-06T17:46:10.677Z,88.27
2023-03-06T17:48:37.783Z,88.93
2023-03-06T17:51:04.942Z,88.90
2023-03-06T17:53:31.710Z,88.04
2023-03-06T17:55:58.362Z,88.19
2023-03-06T17:58:25.677Z,87.23
2023-03-06T18:00:52.983Z,87.80
2023-03-06T18:03:19.614Z,87.39
2023-03-06T18:05:46.063Z,87.67
2023-03-06T18:08:12.699Z,87.44
2023-03-06T18:10:40.427Z,87.35
2023-03-06T18:13:08.413Z,87.79
2023-03-06T18:15:38.694Z,87.74
2023-03-06T18:18:05.379Z,87.81
2023-03-06T18:20:32.779Z,87.46
2023-03-06T18:23:03.326Z,88.13
2023-03-06T18:25:31.740Z,88.21
2023-03-06T18:27:58.600Z,88.02
2023-03-06T18:30:25.177Z,88.41
2023-03-06T18:32:51.734Z,88.87
2023-03-06T18:35:18.383Z,89.50
2023-03-06T18:37:44.940Z,90.23
2023-03-06T18:40:12.625Z,90.41
2023-03-06T18:42:39.074Z,90.60
2023-03-06T18:45:06.183Z,90.93
2023-03-06T18:47:33.655Z,90.72
2023-03-06T18:50:00.259Z,91.49
2023-03-06T18:52:26.742Z,91.76
2023-03-06T18:54:53.501Z,92.29
2023-03-06T18:57:20.018Z,91.94
2023-03-06T18:59:46.487Z,91.94
2023-03-06T19:02:13.126Z,91.92
2023-03-06T19:04:39.722Z,92.37
2023-03-06T19:07:06.527Z,92.69
2023-03-06T19:09:33.260Z,92.59
2023-03-06T19:12:03.045Z,92.93
2023-03-06T19:14:29.780Z,93.54
2023-03-06T19:16:56.516Z,93.64
2023-03-06T19:19:26.338Z,93.31
2023-03-06T19:21:53.716Z,93.91
2023-03-06T19:24:20.158Z,94.00
2023-03-06T19:26:46.631Z,94.52
2023-03-06T19:29:13.089Z,94.34
2023-03-06T19:31:39.580Z,94.11
2023-03-06T19:34:06.312Z,95.05
2023-03-06T19:36:34.151Z,95.40
2023-03-06T19:39:03.538Z,95.31
2023-03-06T19:41:30.775Z,95.82
2023-03-06T19:44:02.171Z,95.25
2023-03-06T19:46:28.717Z,95.82
2023-03-06T19:48:57.262Z,96.24
2023-03-06T19:51:24.730Z,95.95
2023-03-06T19:53:51.334Z,96.55
2023-03-06T19:56:22.588Z,96.75
2023-03-06T19:58:49.122Z,97.28
2023-03-06T20:01:18.131Z,97.54
2023-03-06T20:03:44.914Z,98.19
2023-03-06T20:06:17.434Z,98.08
2023-03-06T20:08:45.061Z,97.10
2023-03-06T20:11:18.948Z,97.41
2023-03-06T20:13:47.516Z,98.53
2023-03-06T20:16:18.485Z,98.68
2023-03-06T20:18:45.652Z,98.89
2023-03-06T20:21:12.283Z,99.22
2023-03-06T20:23:38.775Z,99.62
2023-03-06T20:26:12.053Z,99.83
2023-03-06T20:28:39.614Z,99.66
2023-03-06T20:31:08.520Z,99.76
2023-03-06T20:33:35.414Z,100.00
2023-03-06T20:36:02.045Z,100.00
2023-03-06T20:38:28.671Z,100.00
2023-03-06T20:40:56.087Z,100.00
2023-03-06T20:43:23.553Z,100.00
2023-03-06T20:46:03.486Z,100.00
2023-03-06T20:48:30.045Z,100.00
2023-03-06T20:51:04.612Z,100.00
2023-03-06T20:53:31.507Z,100.00
2023-03-06T20:55:58.212Z,100.00
2023-03-06T20:58:28.517Z,100.00
2023-03-06T21:00:55.182Z,100.00
2023-03-06T21:03:22.016Z,100.00
2023-03-06T21:05:48.699Z,100.00
2023-03-06T21:08:16.704Z,100.00
2023-03-06T21:10:45.543Z,100.00
2023-03-06T21:13:12.393Z,100.00
2023-03-06T21:15:40.623Z,100.00
2023-03-06T21:18:07.323Z,100.00
2023-03-06T21:20:34.723Z,100.00
2023-03-06T21:23:04.002Z,100.00
2023-03-06T21:25:30.673Z,100.00
2023-03-06T21:27:58.776Z,100.00
2023-03-06T21:30:25.281Z,100.00
2023-03-06T21:32:52.418Z,100.00
2023-03-06T21:35:19.401Z,100.00
2023-03-06T21:37:46.997Z,100.00
2023-03-06T21:40:16.815Z,100.00
2023-03-06T21:42:43.420Z,100.00
2023-03-06T21:45:10.288Z,100.00
2023-03-06T21:47:38.779Z,100.00
2023-03-06T21:50:07.084Z,100.00
2023-03-06T21:52:33.624Z,100.00
2023-03-06T21:55:00.292Z,100.00
2023-03-06T21:57:27.080Z,100.00
2023-03-06T21:59:53.613Z,100.00
2023-03-06T22:02:21.355Z,100.00
2023-03-06T22:04:52.496Z,100.00
2023-03-06T22:07:20.248Z,100.00
2023-03-06T22:09:47.351Z,100.00
2023-03-06T22:12:13.858Z,100.00
2023-03-06T22:14:41.387Z,100.00
2023-03-06T22:17:07.887Z,100.00
2023-03-06T22:19:34.424Z,100.00
2023-03-06T22:22:01.065Z,100.00
2023-03-06T22:24:27.694Z,100.00
2023-03-06T22:26:54.103Z,100.00
2023-03-06T22:29:20.606Z,100.00
2023-03-06T22:31:47.043Z,100.00
2023-03-06T22:34:13.674Z,100.00
2023-03-06T22:36:40.165Z,100.00
2023-03-06T22:39:06.697Z,100.00
2023-03-06T22:41:33.333Z,100.00
2023-03-06T22:44:02.230Z,100.00
2023-03-06T22:46:29.525Z,100.00
2023-03-06T22:49:00.474Z,100.00
2023-03-06T22:51:28.674Z,100.00
2023-03-06T22:53:55.569Z,100.00
2023-03-06T22:56:22.882Z,100.00
2023-03-06T22:58:49.704Z,100.00
2023-03-06T23:01:21.741Z,100.00
2023-03-06T23:03:53.673Z,100.00
2023-03-06T23:06:35.119Z,100.00
2023-03-06T23:09:06.031Z,100.00
2023-03-06T23:11:51.665Z,100.00
2023-03-06T23:14:37.016Z,100.00
2023-03-06T23:17:21.925Z,100.00
2023-03-06T23:20:10.024Z,100.00
2023-03-06T23:22:55.082Z,100.00
2023-03-06T23:25:40.454Z,100.00
2023-03-06T23:28:07.536Z,100.00
2023-03-06T23:30:33.975Z,100.00
2023-03-06T23:33:00.428Z,100.00
2023-03-06T23:35:26.875Z,100.00
2023-03-06T23:37:53.415Z,100.00
2023-03-06T23:40:20.477Z,100.00
2023-03-06T23:42:46.984Z,100.00
2023-03-06T23:45:13.481Z,100.00
2023-03-06T23:47:40.016Z,100.00
2023-03-06T23:50:06.755Z,100.00
2023-03-06T23:52:33.462Z,100.00
2023-03-06T23:54:59.936Z,100.00
2023-03-06T23:57:26.498Z,100.00
2023-03-06T23:59:55.133Z,100.00
